Time;durP1;ratioP1;P1;durP2;ratioP2;P2;SDS_P1;SDS_P2;PMS_P1;PMS_P2;Temp;Humidity;BMP_temperature;BMP_pressure;BME280_temperature;BME280_humidity;BME280_pressure;Samples;Min_cycle;Max_cycle;Signal;HPM_P1;HPM_P2
2021/09/25 00:01:15;;;;;;;18.70;10.60;;;333.50;2329.60;;;;;;5071890;28;20025;-85
2021/09/25 00:03:43;;;;;;;15.35;11.32;;;333.50;2329.60;;;;;;5071449;28;20066;-85
2021/09/25 00:06:15;;;;;;;14.80;10.52;;;333.50;2329.60;;;;;;5055874;28;20032;-86
2021/09/25 00:08:52;;;;;;;17.58;9.93;;;333.60;2329.60;;;;;;5071632;28;20028;-85
2021/09/25 00:11:47;;;;;;;17.60;9.98;;;333.50;2329.60;;;;;;5071745;28;20032;-86
2021/09/25 00:14:51;;;;;;;15.93;9.65;;;333.20;2329.60;;;;;;5073194;28;20077;-84
2021/09/25 00:17:26;;;;;;;18.00;11.30;;;333.20;2329.60;;;;;;5067812;28;20068;-86
2021/09/25 00:20:37;;;;;;;15.52;10.07;;;333.10;2329.60;;;;;;5071235;28;20036;-88
2021/09/25 00:26:35;;;;;;;15.15;9.77;;;332.90;2329.60;;;;;;5064898;28;20028;-85
2021/09/25 00:29:53;;;;;;;16.90;9.98;;;332.90;2329.60;;;;;;5055742;28;20044;-86
2021/09/25 00:32:38;;;;;;;13.90;9.38;;;308.00;2304.00;;;;;;5072330;28;20075;-86
2021/09/25 00:36:34;;;;;;;12.77;8.75;;;332.90;2329.60;;;;;;5073751;28;20095;-85
2021/09/25 00:39:01;;;;;;;15.77;9.60;;;332.90;2329.60;;;;;;5065324;28;20037;-86
2021/09/25 00:41:29;;;;;;;16.42;8.73;;;333.00;2329.60;;;;;;5073290;28;20029;-85
2021/09/25 00:44:01;;;;;;;12.13;8.23;;;333.10;2329.60;;;;;;5073576;28;20024;-86
2021/09/25 00:47:34;;;;;;;11.88;7.25;;;333.10;2329.60;;;;;;5072985;28;20065;-83
2021/09/25 00:49:40;;;;;;;14.55;7.97;;;333.10;2329.60;;;;;;5046438;28;20132;-86
2021/09/25 00:55:32;;;;;;;13.32;7.90;;;333.30;2329.60;;;;;;5031449;28;20037;-87
2021/09/25 00:58:05;;;;;;;11.63;7.47;;;333.40;2329.60;;;;;;5065806;28;20474;-85
2021/09/25 01:00:37;;;;;;;9.65;7.07;;;333.50;2329.60;;;;;;5073349;28;20035;-86
2021/09/25 01:03:04;;;;;;;11.15;7.20;;;333.60;2329.60;;;;;;5072208;28;20036;-87
2021/09/25 01:05:36;;;;;;;11.55;6.97;;;333.30;2329.60;;;;;;5072156;28;20552;-87
2021/09/25 01:08:05;;;;;;;12.05;7.20;;;333.60;2329.60;;;;;;5072097;28;20039;-85
2021/09/25 01:10:32;;;;;;;14.70;8.13;;;333.40;2329.60;;;;;;5055483;28;20036;-87
2021/09/25 01:12:58;;;;;;;13.75;7.90;;;333.60;2329.60;;;;;;5055269;28;20081;-87
2021/09/25 01:15:26;;;;;;;16.23;10.13;;;333.70;2329.60;;;;;;5055406;28;20380;-86
2021/09/25 01:18:13;;;;;;;15.77;10.18;;;333.40;2329.60;;;;;;5092548;28;20411;-86
2021/09/25 01:20:42;;;;;;;15.70;9.18;;;333.40;2329.60;;;;;;5075431;28;20024;-87
2021/09/25 01:23:15;;;;;;;19.02;11.20;;;333.50;2329.60;;;;;;5094054;28;20060;-86
2021/09/25 01:29:12;;;;;;;14.88;9.80;;;333.40;2329.60;;;;;;5089625;28;20093;-87
2021/09/25 01:31:39;;;;;;;16.05;9.45;;;333.40;2329.60;;;;;;5079169;28;20445;-87
2021/09/25 01:34:05;;;;;;;15.43;9.50;;;333.40;2329.60;;;;;;5078348;28;20073;-85
2021/09/25 01:36:35;;;;;;;20.63;11.13;;;358.50;2329.60;;;;;;5079289;28;20069;-85
2021/09/25 01:39:04;;;;;;;16.52;9.77;;;333.40;2329.60;;;;;;5078993;28;20024;-88
2021/09/25 01:41:32;;;;;;;16.13;8.63;;;333.30;2329.60;;;;;;5078312;28;20036;-87
2021/09/25 01:44:04;;;;;;;17.40;12.63;;;333.20;2329.60;;;;;;5078861;28;20500;-86
2021/09/25 01:46:48;;;;;;;21.73;16.08;;;333.10;2329.60;;;;;;5097137;28;20072;-87
2021/09/25 01:49:20;;;;;;;20.20;15.27;;;333.20;2329.60;;;;;;5078794;28;20024;-86
2021/09/25 01:51:58;;;;;;;17.27;11.97;;;332.90;2329.60;;;;;;5094708;28;20434;-86
2021/09/25 01:54:41;;;;;;;23.25;13.23;;;332.80;2329.60;;;;;;5078300;28;20457;-87
2021/09/25 02:00:35;;;;;;;23.92;12.55;;;332.90;2329.60;;;;;;5079070;28;19915;-85
2021/09/25 02:03:16;;;;;;;19.42;12.13;;;332.90;2329.60;;;;;;5095463;28;20491;-87
2021/09/25 02:09:36;;;;;;;16.25;10.48;;;333.00;2329.60;;;;;;5096109;28;20061;-85
2021/09/25 02:12:43;;;;;;;14.82;8.93;;;332.90;2329.60;;;;;;5091782;28;20091;-85
2021/09/25 02:21:39;;;;;;;15.50;9.50;;;308.00;2304.00;;;;;;5021557;28;20048;-87
2021/09/25 02:28:12;;;;;;;19.65;11.30;;;307.90;2304.00;;;;;;4917222;29;20059;-85
2021/09/25 02:31:09;;;;;;;21.80;12.60;;;307.70;2304.00;;;;;;4955587;28;20377;-87
2021/09/25 02:41:43;;;;;;;;;;;;;;;;;;;;;
2021/09/25 02:48:10;;;;;;;14.15;8.23;;;307.40;2304.00;;;;;;4926310;28;20074;-87
2021/09/25 02:51:29;;;;;;;13.15;7.63;;;307.40;2304.00;;;;;;4974295;28;20031;-86
2021/09/25 02:55:10;;;;;;;12.55;7.63;;;307.40;2304.00;;;;;;4964378;28;20599;-87
2021/09/25 02:59:06;;;;;;;;;;;;;;;;;;;;;
2021/09/25 03:16:13;;;;;;;25.77;12.68;;;307.70;2304.00;;;;;;4814214;29;20071;-88
2021/09/25 03:51:40;;;;;;;15.95;8.77;;;307.70;2304.00;;;;;;4888241;29;20400;-87
2021/09/25 04:05:55;;;;;;;;;;;;;;;;;;;;;
2021/09/25 04:40:55;;;;;;;28.67;18.33;;;307.30;2304.00;;;;;;4826663;29;20127;-85
2021/09/25 04:58:30;;;;;;;;;;;;;;;;;;;;;
2021/09/25 05:01:46;;;;;;;24.60;13.63;;;282.40;2278.40;;;;;;4949707;29;20035;-87
2021/09/25 05:07:48;;;;;;;21.23;12.40;;;307.50;2304.00;;;;;;4957238;29;20046;-87
2021/09/25 05:11:47;;;;;;;18.92;11.65;;;307.50;2304.00;;;;;;4957285;28;20132;-86
2021/09/25 05:15:52;;;;;;;24.77;13.20;;;307.40;2304.00;;;;;;4919687;28;20034;-87
2021/09/25 05:26:13;;;;;;;19.63;11.15;;;282.30;2278.40;;;;;;4956891;29;20423;-87
2021/09/25 05:33:57;;;;;;;;;;;;;;;;;;;;;
2021/09/25 05:37:32;;;;;;;;;;;;;;;;;;;;;
2021/09/25 05:44:56;;;;;;;;;;;;;;;;;;;;;
2021/09/25 05:48:14;;;;;;;22.52;13.90;;;307.70;2304.00;;;;;;4789420;29;20035;-87
2021/09/25 05:54:24;;;;;;;25.17;15.65;;;307.50;2304.00;;;;;;4824547;29;20541;-86
2021/09/25 05:57:49;;;;;;;27.02;15.73;;;307.50;2304.00;;;;;;4841571;29;20060;-87
2021/09/25 06:01:31;;;;;;;25.20;15.63;;;307.70;2304.00;;;;;;4819332;29;20030;-87
2021/09/25 06:04:58;;;;;;;17.85;11.57;;;307.80;2304.00;;;;;;4862755;29;20033;-86
2021/09/25 06:08:30;;;;;;;20.98;12.60;;;307.70;2304.00;;;;;;4861802;29;20067;-88
2021/09/25 06:14:53;;;;;;;22.15;12.93;;;307.90;2304.00;;;;;;4951564;28;20070;-88
2021/09/25 06:24:57;;;;;;;19.92;12.85;;;332.90;2329.60;;;;;;5000547;28;20092;-87
2021/09/25 06:27:51;;;;;;;20.33;11.95;;;333.10;2329.60;;;;;;4936823;29;20536;-86
2021/09/25 06:31:19;;;;;;;18.17;11.98;;;333.20;2329.60;;;;;;4936064;29;20040;-87
2021/09/25 06:33:53;;;;;;;20.10;11.63;;;333.40;2329.60;;;;;;4861852;29;20037;-85
2021/09/25 06:37:04;;;;;;;23.05;12.40;;;333.40;2329.60;;;;;;4901753;29;20043;-86
2021/09/25 06:40:05;;;;;;;18.15;11.20;;;333.50;2329.60;;;;;;4915759;29;20040;-86
2021/09/25 06:42:46;;;;;;;17.63;10.75;;;358.40;2329.60;;;;;;4947853;29;20036;-87
2021/09/25 06:45:18;;;;;;;21.70;11.23;;;333.70;2329.60;;;;;;4939919;29;20118;-87
2021/09/25 06:47:44;;;;;;;15.80;11.18;;;358.40;2329.60;;;;;;4924977;29;20127;-86
2021/09/25 06:50:10;;;;;;;20.83;11.65;;;358.50;2329.60;;;;;;4939589;29;20035;-85
2021/09/25 06:52:42;;;;;;;18.30;10.18;;;358.60;2329.60;;;;;;4939934;29;20035;-87
2021/09/25 06:55:09;;;;;;;18.92;11.50;;;358.70;2329.60;;;;;;4979335;28;20081;-87
2021/09/25 07:00:30;;;;;;;18.60;11.55;;;358.90;2329.60;;;;;;4964662;28;20030;-85
2021/09/25 07:02:56;;;;;;;18.17;11.05;;;359.00;2329.60;;;;;;4999771;28;20092;-86
2021/09/25 07:05:22;;;;;;;17.77;10.55;;;359.00;2329.60;;;;;;5033206;28;20076;-84
2021/09/25 07:07:49;;;;;;;19.30;10.38;;;359.20;2329.60;;;;;;5033461;28;20490;-86
2021/09/25 07:10:16;;;;;;;17.38;11.10;;;359.30;2329.60;;;;;;5016390;28;20037;-86
2021/09/25 07:12:43;;;;;;;14.48;10.55;;;384.00;2329.60;;;;;;5016800;28;20436;-87
2021/09/25 07:15:09;;;;;;;17.98;11.05;;;384.10;2329.60;;;;;;5017068;28;20040;-89
2021/09/25 07:17:42;;;;;;;19.55;12.18;;;384.00;2329.60;;;;;;5017186;28;20030;-87
2021/09/25 07:20:08;;;;;;;21.27;13.27;;;384.10;2329.60;;;;;;5017451;28;20546;-89
2021/09/25 07:22:35;;;;;;;13.85;9.30;;;384.30;2329.60;;;;;;5032967;28;20049;-90
2021/09/25 07:25:01;;;;;;;16.85;10.00;;;384.10;2329.60;;;;;;5033394;28;20044;-86
2021/09/25 07:27:27;;;;;;;11.70;8.40;;;384.20;2329.60;;;;;;5062094;28;20039;-89
2021/09/25 07:29:53;;;;;;;12.73;7.53;;;409.60;2355.20;;;;;;5057457;28;20060;-85
2021/09/25 07:32:20;;;;;;;11.93;8.07;;;384.70;2329.60;;;;;;5056502;28;20102;-86
2021/09/25 07:34:46;;;;;;;12.90;8.05;;;384.80;2329.60;;;;;;5057193;28;20510;-85
2021/09/25 07:37:12;;;;;;;9.88;7.75;;;384.90;2329.60;;;;;;5074814;28;20025;-85
2021/09/25 07:39:39;;;;;;;12.68;8.77;;;409.70;2355.20;;;;;;5057072;28;20023;-87
2021/09/25 07:42:06;;;;;;;18.50;7.80;;;384.90;2329.60;;;;;;5056740;28;20029;-86
2021/09/25 07:44:32;;;;;;;10.00;7.30;;;410.00;2355.20;;;;;;5056729;28;20456;-85
2021/09/25 07:46:57;;;;;;;12.82;8.05;;;410.20;2355.20;;;;;;5056942;28;20024;-86
2021/09/25 07:49:23;;;;;;;13.05;8.32;;;410.30;2355.20;;;;;;5056801;28;20031;-84
2021/09/25 07:51:49;;;;;;;11.93;6.60;;;410.30;2355.20;;;;;;5056800;28;20021;-85
2021/09/25 07:54:15;;;;;;;10.00;7.30;;;410.50;2355.20;;;;;;5056763;28;20120;-87
2021/09/25 07:56:41;;;;;;;12.63;9.15;;;435.20;2355.20;;;;;;5056626;28;20122;-87
2021/09/25 07:59:07;;;;;;;13.45;10.05;;;435.30;2355.20;;;;;;5056566;28;20497;-84
2021/09/25 08:01:33;;;;;;;11.68;7.60;;;435.30;2355.20;;;;;;5056496;28;20484;-85
2021/09/25 08:03:58;;;;;;;11.50;7.80;;;435.40;2355.20;;;;;;5056448;28;20033;-87
2021/09/25 08:06:24;;;;;;;14.23;8.23;;;435.50;2355.20;;;;;;5056446;28;20021;-85
2021/09/25 08:08:50;;;;;;;10.50;7.80;;;435.60;2355.20;;;;;;5056041;28;20028;-85
2021/09/25 08:11:16;;;;;;;13.93;8.63;;;435.60;2355.20;;;;;;5055838;28;20032;-86
2021/09/25 08:13:42;;;;;;;15.73;9.85;;;435.70;2355.20;;;;;;5056466;28;20039;-84
2021/09/25 08:16:08;;;;;;;14.63;9.05;;;435.80;2355.20;;;;;;5056384;28;20396;-85
2021/09/25 08:18:34;;;;;;;15.40;9.27;;;435.90;2355.20;;;;;;5056494;28;20025;-86
2021/09/25 08:21:00;;;;;;;13.60;9.70;;;436.00;2355.20;;;;;;5055983;28;20392;-84
2021/09/25 08:23:26;;;;;;;11.80;8.52;;;436.00;2355.20;;;;;;5072075;28;20049;-86
2021/09/25 08:25:53;;;;;;;14.23;10.02;;;436.10;2355.20;;;;;;5072738;28;20452;-84
2021/09/25 08:28:20;;;;;;;14.02;9.00;;;460.80;2380.80;;;;;;5072897;28;20111;-86
2021/09/25 08:30:46;;;;;;;13.45;8.70;;;461.00;2380.80;;;;;;5072492;28;20029;-84
2021/09/25 08:33:12;;;;;;;13.43;10.07;;;461.20;2380.80;;;;;;5072414;28;20051;-83
2021/09/25 08:35:38;;;;;;;16.13;10.80;;;461.00;2380.80;;;;;;5073064;28;20094;-86
2021/09/25 08:38:04;;;;;;;17.58;10.15;;;460.90;2380.80;;;;;;5072674;28;20086;-83
2021/09/25 08:40:31;;;;;;;12.93;10.23;;;461.30;2380.80;;;;;;5072720;28;20024;-87
2021/09/25 08:42:58;;;;;;;16.75;10.27;;;461.30;2380.80;;;;;;5072959;28;20094;-84
2021/09/25 08:45:24;;;;;;;17.13;10.77;;;461.40;2380.80;;;;;;5073821;28;20032;-86
2021/09/25 08:47:50;;;;;;;15.48;9.40;;;461.50;2380.80;;;;;;5072407;28;20047;-84
2021/09/25 08:50:17;;;;;;;15.75;11.05;;;461.50;2380.80;;;;;;5072552;28;20181;-81
2021/09/25 08:52:44;;;;;;;21.20;12.27;;;461.50;2380.80;;;;;;5072123;28;20037;-81
2021/09/25 08:55:12;;;;;;;19.40;14.75;;;461.70;2380.80;;;;;;5072448;28;20029;-81
2021/09/25 08:57:39;;;;;;;22.23;16.35;;;486.50;2380.80;;;;;;5073969;28;20082;-83
2021/09/25 09:00:25;;;;;;;15.55;11.70;;;486.50;2380.80;;;;;;5072563;28;20032;-82
2021/09/25 09:02:52;;;;;;;17.92;11.85;;;486.60;2380.80;;;;;;5072543;28;20461;-82
2021/09/25 09:05:29;;;;;;;25.45;17.13;;;486.80;2380.80;;;;;;5072206;28;20025;-79
2021/09/25 09:07:59;;;;;;;13.07;7.47;;;487.00;2380.80;;;;;;5075593;28;20028;-83
2021/09/25 09:10:38;;;;;;;15.07;9.00;;;487.00;2380.80;;;;;;5075501;28;20039;-83
2021/09/25 09:13:05;;;;;;;13.60;9.05;;;487.10;2380.80;;;;;;5075590;28;20498;-82
2021/09/25 09:15:32;;;;;;;11.65;7.72;;;487.20;2380.80;;;;;;5076005;28;20020;-84
2021/09/25 09:18:01;;;;;;;10.90;6.82;;;487.20;2380.80;;;;;;5076014;28;20024;-83
2021/09/25 09:20:28;;;;;;;16.15;9.50;;;487.20;2380.80;;;;;;5075501;28;20029;-84
2021/09/25 09:23:14;;;;;;;17.85;12.68;;;512.00;2380.80;;;;;;5075468;28;20044;-81
2021/09/25 09:25:41;;;;;;;11.88;9.32;;;512.40;2380.80;;;;;;5075643;28;20024;-82
2021/09/25 09:28:21;;;;;;;11.55;7.97;;;512.60;2380.80;;;;;;5075109;28;20031;-82
2021/09/25 09:30:48;;;;;;;12.98;7.10;;;512.80;2380.80;;;;;;5093848;28;20089;-81
2021/09/25 09:33:33;;;;;;;10.02;6.93;;;512.80;2380.80;;;;;;5075244;28;20472;-81
2021/09/25 09:36:27;;;;;;;14.35;8.45;;;537.60;2406.40;;;;;;5075223;28;20051;-82
2021/09/25 09:39:14;;;;;;;8.13;6.45;;;537.60;2406.40;;;;;;5075415;28;20027;-82
2021/09/25 09:41:43;;;;;;;10.63;6.90;;;537.60;2406.40;;;;;;5093094;28;20024;-81
2021/09/25 09:44:16;;;;;;;11.85;6.85;;;537.70;2406.40;;;;;;5075973;28;20024;-82
2021/09/25 09:46:58;;;;;;;11.95;7.93;;;538.10;2406.40;;;;;;5079154;28;20046;-82
2021/09/25 09:49:27;;;;;;;16.27;11.05;;;538.30;2406.40;;;;;;5079071;28;20513;-81
2021/09/25 09:51:54;;;;;;;10.30;8.05;;;538.10;2406.40;;;;;;5079087;28;20060;-81
2021/09/25 09:54:24;;;;;;;11.57;8.25;;;538.20;2406.40;;;;;;5078486;28;20383;-80
2021/09/25 09:56:59;;;;;;;11.05;8.18;;;538.20;2406.40;;;;;;5078830;28;20020;-81
2021/09/25 09:59:25;;;;;;;15.73;11.07;;;538.40;2406.40;;;;;;5096986;28;20119;-81
2021/09/25 10:01:51;;;;;;;16.08;9.85;;;538.40;2406.40;;;;;;5097150;28;20039;-81
2021/09/25 10:04:18;;;;;;;10.13;5.80;;;538.50;2406.40;;;;;;5078514;28;20025;-81
2021/09/25 10:06:45;;;;;;;13.63;7.30;;;563.30;2432.00;;;;;;5067442;28;20032;-81
2021/09/25 10:09:17;;;;;;;8.32;6.38;;;563.40;2432.00;;;;;;5077595;28;20039;-81
2021/09/25 10:11:47;;;;;;;9.02;6.78;;;563.80;2432.00;;;;;;5059754;28;20064;-81
2021/09/25 10:14:20;;;;;;;6.80;5.32;;;564.00;2432.00;;;;;;5073639;28;20032;-81
2021/09/25 10:16:46;;;;;;;10.73;8.32;;;588.80;2432.00;;;;;;5081889;28;20032;-79
2021/09/25 10:19:19;;;;;;;8.77;6.65;;;564.00;2432.00;;;;;;5054214;28;20115;-81
2021/09/25 10:21:48;;;;;;;9.93;6.43;;;564.10;2432.00;;;;;;5071384;28;20048;-81
2021/09/25 10:24:29;;;;;;;8.05;5.82;;;564.10;2432.00;;;;;;5057220;28;20520;-80
2021/09/25 10:26:56;;;;;;;6.63;4.95;;;564.10;2432.00;;;;;;5073624;28;20158;-82
2021/09/25 10:29:24;;;;;;;9.18;6.20;;;564.10;2432.00;;;;;;5057379;28;20064;-81
2021/09/25 10:32:10;;;;;;;10.80;5.15;;;589.00;2432.00;;;;;;5057423;28;20036;-83
2021/09/25 10:34:36;;;;;;;6.70;5.25;;;589.40;2380.80;;;;;;5073635;28;20391;-80
2021/09/25 10:37:02;;;;;;;11.30;6.13;;;589.60;2329.60;;;;;;5072612;28;20119;-81
2021/09/25 10:39:36;;;;;;;16.15;12.48;;;614.40;2329.60;;;;;;5073535;28;20078;-78
2021/09/25 10:42:02;;;;;;;9.85;6.72;;;614.50;2355.20;;;;;;5073258;28;20051;-79
2021/09/25 10:44:33;;;;;;;9.90;6.65;;;614.60;2304.00;;;;;;5053913;28;20028;-80
2021/09/25 10:47:20;;;;;;;11.52;6.00;;;614.60;2304.00;;;;;;5038292;28;20044;-80
2021/09/25 10:49:58;;;;;;;15.85;8.23;;;614.80;2278.40;;;;;;5038032;28;20028;-80
2021/09/25 10:52:51;;;;;;;9.68;5.72;;;614.80;2278.40;;;;;;5074805;28;20530;-80
2021/09/25 10:55:21;;;;;;;;;;;615.30;2227.20;;;;;;5053669;28;20376;-79
2021/09/25 10:58:13;;;;;;;6.95;5.07;;;640.10;2176.00;;;;;;5056514;28;19915;-80
2021/09/25 11:01:02;;;;;;;7.82;5.03;;;640.40;2150.40;;;;;;5054707;28;20036;-79
2021/09/25 11:03:43;;;;;;;14.98;5.85;;;640.50;2099.20;;;;;;5025146;28;20033;-83
2021/09/25 11:06:20;;;;;;;9.70;5.28;;;640.50;2124.80;;;;;;5061326;28;20112;-81
2021/09/25 11:09:03;;;;;;;10.25;5.95;;;640.70;2073.60;;;;;;5056924;28;20029;-81
2021/09/25 11:11:40;;;;;;;10.43;7.50;;;665.60;2124.80;;;;;;5057087;28;20035;-79
2021/09/25 11:14:05;;;;;;;9.20;5.80;;;665.90;2099.20;;;;;;5073796;28;20064;-79
2021/09/25 11:17:07;;;;;;;9.10;4.65;;;666.00;2073.60;;;;;;5074590;28;20044;-79
2021/09/25 11:19:39;;;;;;;8.85;4.80;;;666.50;2022.40;;;;;;5073216;28;20060;-78
2021/09/25 11:22:08;;;;;;;6.15;4.63;;;666.30;1996.80;;;;;;5073424;28;20044;-79
2021/09/25 11:24:55;;;;;;;6.38;4.47;;;691.20;1996.80;;;;;;5074686;28;20142;-78
2021/09/25 11:27:43;;;;;;;6.35;4.10;;;666.50;1971.20;;;;;;5073040;28;20353;-81
2021/09/25 11:30:13;;;;;;;9.68;4.72;;;691.40;1971.20;;;;;;5072906;28;20024;-78
2021/09/25 11:32:58;;;;;;;7.47;4.78;;;691.60;1945.60;;;;;;5073189;28;20127;-79
2021/09/25 11:35:35;;;;;;;6.95;4.32;;;691.90;1920.00;;;;;;5073308;28;20478;-79
2021/09/25 11:38:05;;;;;;;8.20;4.30;;;692.10;1920.00;;;;;;5073604;28;20119;-78
2021/09/25 11:40:37;;;;;;;8.75;4.53;;;716.90;1945.60;;;;;;5073961;28;20083;-79
2021/09/25 11:43:08;;;;;;;11.55;5.80;;;717.20;1894.40;;;;;;5073378;28;20063;-79
2021/09/25 11:45:46;;;;;;;9.85;5.72;;;717.30;1894.40;;;;;;5073262;28;20548;-79
2021/09/25 11:48:23;;;;;;;9.05;5.35;;;717.40;1868.80;;;;;;5071853;28;20028;-78
2021/09/25 11:50:55;;;;;;;11.13;5.03;;;717.50;1843.20;;;;;;5056465;28;20078;-80
2021/09/25 11:53:23;;;;;;;10.32;5.15;;;717.60;1843.20;;;;;;5072549;28;20028;-79
2021/09/25 11:55:50;;;;;;;8.60;5.95;;;717.70;1843.20;;;;;;5073109;28;20032;-78
2021/09/25 11:58:20;;;;;;;8.07;6.13;;;742.60;1868.80;;;;;;5074325;28;20475;-79
2021/09/25 12:00:58;;;;;;;10.20;5.93;;;742.70;1843.20;;;;;;5074083;28;20078;-80
2021/09/25 12:03:28;;;;;;;12.20;8.15;;;742.80;1817.60;;;;;;5055537;28;20432;-79
2021/09/25 12:05:56;;;;;;;10.35;6.10;;;743.00;1843.20;;;;;;5072578;28;20081;-78
2021/09/25 12:08:26;;;;;;;8.27;3.80;;;743.10;1817.60;;;;;;5071883;28;20488;-78
2021/09/25 12:10:56;;;;;;;8.10;4.38;;;742.90;1766.40;;;;;;5074053;28;20035;-81
2021/09/25 12:13:31;;;;;;;9.40;4.88;;;742.60;1766.40;;;;;;5074101;28;20384;-79
2021/09/25 12:16:08;;;;;;;8.77;3.88;;;742.90;1792.00;;;;;;5073745;28;20028;-79
2021/09/25 12:18:38;;;;;;;7.57;4.43;;;742.70;1766.40;;;;;;5074061;28;20030;-78
2021/09/25 12:21:12;;;;;;;5.47;3.80;;;742.50;1766.40;;;;;;5072618;28;20468;-79
2021/09/25 12:23:57;;;;;;;8.25;3.80;;;742.60;1766.40;;;;;;5072350;28;20029;-78
2021/09/25 12:26:25;;;;;;;9.85;6.57;;;742.60;1766.40;;;;;;5072615;28;20381;-78
2021/09/25 12:28:53;;;;;;;17.55;10.30;;;743.00;1792.00;;;;;;5073570;28;20139;-79
2021/09/25 12:31:26;;;;;;;13.25;10.18;;;743.10;1792.00;;;;;;5072225;28;20025;-80
2021/09/25 12:34:01;;;;;;;27.70;19.23;;;743.30;1792.00;;;;;;5073822;28;20166;-78
2021/09/25 12:36:41;;;;;;;12.73;8.57;;;768.10;1792.00;;;;;;5073601;28;20021;-80
2021/09/25 12:39:15;;;;;;;10.95;7.20;;;768.20;1792.00;;;;;;5055784;28;20024;-82
2021/09/25 12:41:46;;;;;;;11.00;7.30;;;768.10;1740.80;;;;;;5072549;28;20107;-80
2021/09/25 12:44:12;;;;;;;8.57;5.63;;;768.30;1766.40;;;;;;5073120;28;20051;-78
2021/09/25 12:46:46;;;;;;;5.63;4.57;;;768.20;1766.40;;;;;;5072495;28;20580;-79
2021/09/25 12:49:15;;;;;;;6.15;4.57;;;768.10;1715.20;;;;;;5072656;28;20036;-80
2021/09/25 12:51:56;;;;;;;10.18;8.65;;;743.30;1715.20;;;;;;5055833;28;20035;-81
2021/09/25 12:54:33;;;;;;;7.93;4.57;;;768.10;1715.20;;;;;;5056111;28;20052;-81
2021/09/25 12:57:16;;;;;;;5.22;4.22;;;768.30;1715.20;;;;;;5072490;28;20067;-79
2021/09/25 12:59:44;;;;;;;5.13;3.83;;;768.40;1740.80;;;;;;5072644;28;20032;-82
2021/09/25 13:02:16;;;;;;;7.70;4.45;;;768.50;1715.20;;;;;;5072516;28;20487;-80
2021/09/25 13:04:47;;;;;;;6.80;4.72;;;768.50;1715.20;;;;;;5072237;28;20028;-79
2021/09/25 13:07:14;;;;;;;6.73;4.43;;;768.60;1715.20;;;;;;5072815;28;20040;-80
2021/09/25 13:09:54;;;;;;;5.93;4.05;;;768.40;1689.60;;;;;;5072627;28;20272;-82
2021/09/25 13:12:31;;;;;;;7.95;5.03;;;768.60;1689.60;;;;;;5072628;28;20074;-80
2021/09/25 13:15:12;;;;;;;7.72;3.83;;;768.70;1715.20;;;;;;5073909;28;20085;-79
2021/09/25 13:17:42;;;;;;;5.53;4.78;;;768.80;1715.20;;;;;;5073398;28;20016;-81
2021/09/25 13:20:11;;;;;;;8.82;7.15;;;768.90;1715.20;;;;;;5075190;28;20025;-82
2021/09/25 13:22:37;;;;;;;9.48;5.20;;;768.90;1689.60;;;;;;5078124;28;20547;-79
2021/09/25 13:25:05;;;;;;;7.25;5.00;;;768.90;1715.20;;;;;;5077950;28;20021;-79
2021/09/25 13:27:32;;;;;;;4.57;3.42;;;768.90;1715.20;;;;;;5059546;28;20025;-81
2021/09/25 13:29:59;;;;;;;6.68;4.88;;;768.70;1664.00;;;;;;5077268;28;20021;-80
2021/09/25 13:32:25;;;;;;;8.70;4.47;;;768.50;1664.00;;;;;;5077184;28;20025;-80
2021/09/25 13:34:51;;;;;;;9.07;4.95;;;768.70;1715.20;;;;;;5076117;28;20025;-81
2021/09/25 13:37:17;;;;;;;8.07;5.82;;;768.80;1689.60;;;;;;5075932;28;20515;-79
2021/09/25 13:39:44;;;;;;;6.25;4.53;;;768.70;1664.00;;;;;;5076556;28;20029;-80
2021/09/25 13:42:10;;;;;;;10.27;6.32;;;768.80;1689.60;;;;;;5075783;28;20472;-80
2021/09/25 13:44:37;;;;;;;10.05;6.57;;;768.90;1689.60;;;;;;5075803;28;20118;-79
2021/09/25 13:47:03;;;;;;;9.68;6.47;;;768.80;1664.00;;;;;;5075386;28;20028;-79
2021/09/25 13:49:29;;;;;;;6.18;3.88;;;768.10;1664.00;;;;;;5077196;28;20116;-80
2021/09/25 13:51:56;;;;;;;10.18;6.75;;;768.80;1664.00;;;;;;5075455;28;20478;-79
2021/09/25 13:54:22;;;;;;;11.52;9.93;;;768.60;1689.60;;;;;;5075444;28;20375;-81
2021/09/25 13:56:48;;;;;;;10.82;7.05;;;768.70;1689.60;;;;;;5075498;28;20029;-79
2021/09/25 13:59:13;;;;;;;6.47;4.45;;;768.60;1689.60;;;;;;5075359;28;20052;-79
2021/09/25 14:01:40;;;;;;;9.25;6.43;;;768.50;1689.60;;;;;;5075171;28;20490;-78
2021/09/25 14:04:06;;;;;;;9.45;7.72;;;768.40;1689.60;;;;;;5076514;28;20033;-79
2021/09/25 14:06:32;;;;;;;9.00;6.97;;;768.40;1689.60;;;;;;5076178;28;20028;-78
2021/09/25 14:08:58;;;;;;;5.43;3.78;;;768.40;1664.00;;;;;;5075140;28;20099;-78
2021/09/25 14:11:24;;;;;;;8.82;5.90;;;768.10;1664.00;;;;;;5075071;28;20035;-79
2021/09/25 14:13:50;;;;;;;8.02;5.95;;;768.10;1689.60;;;;;;5074801;28;20369;-79
2021/09/25 14:16:16;;;;;;;10.40;4.90;;;768.20;1715.20;;;;;;5074790;28;20027;-79
2021/09/25 14:18:46;;;;;;;6.50;4.57;;;768.20;1689.60;;;;;;5076145;28;20477;-79
2021/09/25 14:21:13;;;;;;;9.90;5.93;;;768.10;1715.20;;;;;;5075928;28;20032;-79
2021/09/25 14:23:39;;;;;;;10.10;8.30;;;768.10;1740.80;;;;;;5076574;28;20107;-79
2021/09/25 14:26:07;;;;;;;9.90;4.93;;;743.30;1715.20;;;;;;5074749;28;20449;-79
2021/09/25 14:28:34;;;;;;;10.55;5.10;;;743.00;1715.20;;;;;;5074567;28;20078;-80
2021/09/25 14:31:00;;;;;;;7.35;5.15;;;742.90;1715.20;;;;;;5073648;28;20067;-80
2021/09/25 14:33:27;;;;;;;8.85;6.32;;;742.50;1792.00;;;;;;5074812;28;20035;-78
2021/09/25 14:35:54;;;;;;;8.10;5.93;;;742.50;1792.00;;;;;;5074559;28;20047;-79
2021/09/25 14:38:22;;;;;;;10.20;5.68;;;717.60;1766.40;;;;;;5074605;28;20112;-80
2021/09/25 14:40:50;;;;;;;12.52;6.38;;;717.50;1766.40;;;;;;5074673;28;20085;-80
2021/09/25 14:43:17;;;;;;;11.23;9.48;;;717.20;1792.00;;;;;;5074430;28;20029;-79
2021/09/25 14:45:42;;;;;;;13.77;10.90;;;716.90;1792.00;;;;;;5074329;28;20464;-79
2021/09/25 14:48:08;;;;;;;12.95;11.52;;;692.10;1792.00;;;;;;5057763;28;20025;-79
2021/09/25 14:50:34;;;;;;;11.60;8.20;;;691.80;1817.60;;;;;;5057349;28;20033;-79
2021/09/25 14:53:02;;;;;;;9.50;6.85;;;691.70;1817.60;;;;;;5075622;28;20025;-79
2021/09/25 14:55:29;;;;;;;10.50;7.82;;;691.60;1817.60;;;;;;5073995;28;20025;-79
2021/09/25 14:57:58;;;;;;;7.70;6.53;;;691.40;1868.80;;;;;;5075145;28;20507;-79
2021/09/25 15:00:25;;;;;;;10.95;7.97;;;691.30;1920.00;;;;;;5057693;28;20100;-79
2021/09/25 15:02:51;;;;;;;13.65;7.28;;;666.50;1894.40;;;;;;5081281;28;20036;-76
2021/09/25 15:05:17;;;;;;;10.05;7.40;;;666.30;1920.00;;;;;;5090116;28;20433;-79
2021/09/25 15:07:45;;;;;;;11.20;7.13;;;666.30;1945.60;;;;;;5085382;28;20411;-81
2021/09/25 15:10:11;;;;;;;11.25;7.70;;;666.20;1945.60;;;;;;5075602;28;20337;-81
2021/09/25 15:12:37;;;;;;;10.05;7.57;;;666.10;1971.20;;;;;;5074439;28;20153;-80
2021/09/25 15:15:04;;;;;;;8.98;6.53;;;666.00;1945.60;;;;;;5075356;28;20531;-80
2021/09/25 15:17:30;;;;;;;10.85;8.82;;;666.00;1945.60;;;;;;5057796;28;20021;-80
2021/09/25 15:19:56;;;;;;;22.92;17.35;;;665.90;1945.60;;;;;;5074336;28;20526;-79
2021/09/25 15:22:22;;;;;;;22.23;14.50;;;665.70;1971.20;;;;;;5070407;28;20052;-79
2021/09/25 15:24:48;;;;;;;19.30;14.98;;;665.70;1945.60;;;;;;5070427;28;20501;-81
2021/09/25 15:27:14;;;;;;;19.85;14.57;;;665.60;1996.80;;;;;;5070624;28;20102;-81
2021/09/25 15:29:43;;;;;;;15.40;12.52;;;665.60;1996.80;;;;;;5054145;28;20155;-79
2021/09/25 15:32:10;;;;;;;20.02;12.63;;;640.80;2022.40;;;;;;5053511;28;20377;-82
2021/09/25 15:34:37;;;;;;;21.33;13.25;;;640.60;2073.60;;;;;;5055236;28;20033;-82
2021/09/25 15:37:03;;;;;;;15.32;11.32;;;640.50;2022.40;;;;;;5055052;28;20021;-80
2021/09/25 15:39:29;;;;;;;13.20;9.52;;;640.40;2048.00;;;;;;5070024;28;20130;-81
2021/09/25 15:41:55;;;;;;;12.45;8.57;;;640.30;2099.20;;;;;;5070404;28;20479;-79
2021/09/25 15:44:22;;;;;;;15.35;8.43;;;640.20;2124.80;;;;;;5054628;28;20122;-80
2021/09/25 15:46:49;;;;;;;12.00;8.25;;;640.10;2150.40;;;;;;5070085;28;20033;-80
2021/09/25 15:49:15;;;;;;;13.68;9.50;;;640.00;2176.00;;;;;;5070061;28;20107;-79
2021/09/25 15:51:41;;;;;;;14.38;9.32;;;615.20;2176.00;;;;;;5069793;28;20120;-80
2021/09/25 15:54:07;;;;;;;12.18;9.95;;;615.20;2176.00;;;;;;5069956;28;20033;-80
2021/09/25 15:56:33;;;;;;;13.20;9.73;;;615.00;2201.60;;;;;;5053238;28;20481;-79
2021/09/25 15:58:59;;;;;;;13.18;8.88;;;615.00;2201.60;;;;;;5069631;28;20028;-80